createdAt,value
2022-10-09T00:01:28.672Z,11.00
2022-10-09T00:03:57.644Z,10.90
2022-10-09T00:06:29.630Z,10.90
2022-10-09T00:08:58.623Z,10.90
2022-10-09T00:11:29.432Z,10.90
2022-10-09T00:13:58.418Z,10.82
2022-10-09T00:16:27.793Z,10.80
2022-10-09T00:18:57.178Z,10.80
2022-10-09T00:21:27.019Z,10.70
2022-10-09T00:23:57.803Z,10.70
2022-10-09T00:26:27.474Z,10.62
2022-10-09T00:28:58.545Z,10.68
2022-10-09T00:31:27.410Z,10.70
2022-10-09T00:33:56.102Z,10.62
2022-10-09T00:36:27.901Z,10.60
2022-10-09T00:38:56.954Z,10.60
2022-10-09T00:41:28.311Z,10.60
2022-10-09T00:43:59.048Z,10.50
2022-10-09T00:46:34.949Z,10.50
2022-10-09T00:49:12.242Z,10.50
2022-10-09T00:51:44.041Z,10.50
2022-10-09T00:54:15.748Z,10.50
2022-10-09T00:56:44.327Z,10.50
2022-10-09T00:59:13.112Z,10.40
2022-10-09T01:01:42.531Z,10.40
2022-10-09T01:04:11.413Z,10.40
2022-10-09T01:06:53.416Z,10.36
2022-10-09T01:09:28.178Z,10.34
2022-10-09T01:12:02.606Z,10.30
2022-10-09T01:14:37.026Z,10.30
2022-10-09T01:17:13.729Z,10.30
2022-10-09T01:19:57.161Z,10.30
2022-10-09T01:22:49.816Z,10.20
2022-10-09T01:25:26.021Z,10.20
2022-10-09T01:27:55.440Z,10.20
2022-10-09T01:30:24.214Z,10.20
2022-10-09T01:32:58.920Z,10.20
2022-10-09T01:35:28.643Z,10.20
2022-10-09T01:37:58.473Z,10.20
2022-10-09T01:40:28.297Z,10.20
2022-10-09T01:42:58.064Z,10.20
2022-10-09T01:45:38.358Z,10.20
2022-10-09T01:48:13.334Z,10.20
2022-10-09T01:50:45.547Z,10.20
2022-10-09T01:53:18.316Z,10.20
2022-10-09T01:55:54.207Z,10.10
2022-10-09T01:58:28.329Z,10.10
2022-10-09T02:01:04.935Z,10.10
2022-10-09T02:03:35.681Z,10.10
2022-10-09T02:06:08.960Z,10.10
2022-10-09T02:08:39.165Z,10.10
2022-10-09T02:11:10.247Z,10.00
2022-10-09T02:13:42.185Z,10.00
2022-10-09T02:16:17.232Z,9.90
2022-10-09T02:18:48.341Z,9.90
2022-10-09T02:21:20.805Z,9.90
2022-10-09T02:23:50.336Z,9.90
2022-10-09T02:26:19.466Z,9.80
2022-10-09T02:28:47.896Z,9.78
2022-10-09T02:31:22.712Z,9.70
2022-10-09T02:33:56.492Z,9.64
2022-10-09T02:36:25.697Z,9.62
2022-10-09T02:38:55.113Z,9.64
2022-10-09T02:41:24.000Z,9.60
2022-10-09T02:43:52.625Z,9.64
2022-10-09T02:46:20.973Z,9.76
2022-10-09T02:48:49.741Z,9.80
2022-10-09T02:51:18.427Z,9.90
2022-10-09T02:53:47.141Z,10.00
2022-10-09T02:56:15.585Z,10.00
2022-10-09T02:58:43.880Z,10.02
2022-10-09T03:01:12.466Z,10.02
2022-10-09T03:03:42.638Z,10.00
2022-10-09T03:06:13.817Z,10.00
2022-10-09T03:08:44.027Z,10.00
2022-10-09T03:11:13.731Z,10.00
2022-10-09T03:13:42.483Z,10.06
2022-10-09T03:16:13.077Z,10.00
2022-10-09T03:18:41.898Z,9.88
2022-10-09T03:21:13.163Z,9.80
2022-10-09T03:23:42.821Z,9.70
2022-10-09T03:26:13.762Z,9.60
2022-10-09T03:28:44.302Z,9.50
2022-10-09T03:31:22.601Z,9.40
2022-10-09T03:34:01.113Z,9.34
2022-10-09T03:36:29.603Z,9.30
2022-10-09T03:38:58.055Z,9.20
2022-10-09T03:41:27.121Z,9.18
2022-10-09T03:43:55.566Z,9.10
2022-10-09T03:46:24.079Z,9.10
2022-10-09T03:48:52.386Z,9.10
2022-10-09T03:51:20.678Z,9.00
2022-10-09T03:53:49.240Z,9.00
2022-10-09T03:56:17.384Z,9.00
2022-10-09T03:58:45.564Z,9.00
2022-10-09T04:01:13.988Z,9.10
2022-10-09T04:03:42.414Z,9.20
2022-10-09T04:06:11.292Z,9.30
2022-10-09T04:08:39.543Z,9.30
2022-10-09T04:11:07.861Z,9.40
2022-10-09T04:13:36.215Z,9.38
2022-10-09T04:16:05.167Z,9.20
2022-10-09T04:18:33.485Z,9.10
2022-10-09T04:21:01.806Z,9.00
2022-10-09T04:23:30.260Z,8.90
2022-10-09T04:26:01.802Z,8.90
2022-10-09T04:28:31.587Z,8.80
2022-10-09T04:30:59.890Z,8.80
2022-10-09T04:33:28.572Z,8.80
2022-10-09T04:35:57.739Z,8.70
2022-10-09T04:38:26.136Z,8.66
2022-10-09T04:40:58.253Z,8.60
2022-10-09T04:43:27.355Z,8.58
2022-10-09T04:45:56.283Z,8.58
2022-10-09T04:48:24.812Z,8.60
2022-10-09T04:50:53.511Z,8.60
2022-10-09T04:53:21.802Z,8.60
2022-10-09T04:55:50.094Z,8.60
2022-10-09T04:58:18.477Z,8.60
2022-10-09T05:00:47.486Z,8.60
2022-10-09T05:03:15.800Z,8.60
2022-10-09T05:05:44.154Z,8.60
2022-10-09T05:08:12.387Z,8.60
2022-10-09T05:10:40.816Z,8.60
2022-10-09T05:13:09.211Z,8.60
2022-10-09T05:15:37.902Z,8.60
2022-10-09T05:18:06.441Z,8.60
2022-10-09T05:20:39.547Z,8.60
2022-10-09T05:23:08.027Z,8.60
2022-10-09T05:25:36.648Z,8.60
2022-10-09T05:28:07.062Z,8.60
2022-10-09T05:30:39.861Z,8.60
2022-10-09T05:33:08.373Z,8.60
2022-10-09T05:35:37.262Z,8.60
2022-10-09T05:38:05.696Z,8.60
2022-10-09T05:40:34.123Z,8.60
2022-10-09T05:43:02.546Z,8.60
2022-10-09T05:45:30.963Z,8.60
2022-10-09T05:47:59.821Z,8.60
2022-10-09T05:50:28.115Z,8.70
2022-10-09T05:52:56.562Z,8.74
2022-10-09T05:55:26.597Z,8.80
2022-10-09T05:57:55.123Z,8.80
2022-10-09T06:00:23.505Z,8.72
2022-10-09T06:02:52.176Z,8.76
2022-10-09T06:05:21.301Z,8.80
2022-10-09T06:07:49.948Z,8.80
2022-10-09T06:10:18.503Z,8.90
2022-10-09T06:12:47.119Z,8.90
2022-10-09T06:15:15.893Z,9.00
2022-10-09T06:17:44.241Z,9.00
2022-10-09T06:20:12.619Z,9.00
2022-10-09T06:22:41.144Z,9.00
2022-10-09T06:25:10.559Z,9.10
2022-10-09T06:27:39.043Z,9.16
2022-10-09T06:30:10.288Z,9.20
2022-10-09T06:32:38.614Z,9.30
2022-10-09T06:35:09.448Z,9.40
2022-10-09T06:37:37.827Z,9.50
2022-10-09T06:40:08.174Z,9.50
2022-10-09T06:42:36.754Z,9.60
2022-10-09T06:45:11.226Z,9.70
2022-10-09T06:47:39.691Z,9.80
2022-10-09T06:50:10.283Z,9.98
2022-10-09T06:52:38.496Z,10.10
2022-10-09T06:55:08.193Z,10.30
2022-10-09T06:57:37.104Z,10.40
2022-10-09T07:00:08.433Z,10.56
2022-10-09T07:02:41.770Z,10.68
2022-10-09T07:05:12.281Z,10.70
2022-10-09T07:07:41.630Z,10.80
2022-10-09T07:10:10.664Z,10.80
2022-10-09T07:12:39.623Z,10.90
2022-10-09T07:15:10.395Z,10.90
2022-10-09T07:17:38.673Z,10.90
2022-10-09T07:20:07.964Z,10.90
2022-10-09T07:22:36.237Z,11.00
2022-10-09T07:25:06.615Z,11.00
2022-10-09T07:27:35.535Z,11.10
2022-10-09T07:30:07.021Z,11.30
2022-10-09T07:32:35.663Z,11.50
2022-10-09T07:35:05.262Z,11.70
2022-10-09T07:37:34.048Z,11.80
2022-10-09T07:40:02.527Z,11.80
2022-10-09T07:42:30.857Z,11.98
2022-10-09T07:44:59.278Z,12.00
2022-10-09T07:47:27.782Z,12.00
2022-10-09T07:49:56.618Z,12.10
2022-10-09T07:52:28.113Z,12.10
2022-10-09T07:54:59.735Z,12.20
2022-10-09T07:57:28.036Z,12.20
2022-10-09T07:59:56.436Z,12.20
2022-10-09T08:02:27.640Z,12.30
2022-10-09T08:04:56.028Z,12.40
2022-10-09T08:07:24.639Z,12.50
2022-10-09T08:09:53.551Z,12.70
2022-10-09T08:12:22.039Z,12.86
2022-10-09T08:14:50.509Z,12.96
2022-10-09T08:17:18.971Z,13.00
2022-10-09T08:19:47.905Z,13.10
2022-10-09T08:22:16.265Z,13.20
2022-10-09T08:24:44.730Z,13.30
2022-10-09T08:27:13.143Z,13.38
2022-10-09T08:29:41.495Z,13.38
2022-10-09T08:32:09.855Z,13.40
2022-10-09T08:34:38.312Z,13.50
2022-10-09T08:37:06.699Z,13.60
2022-10-09T08:39:57.150Z,13.64
2022-10-09T08:42:31.329Z,13.70
2022-10-09T08:44:59.658Z,13.70
2022-10-09T08:47:37.922Z,13.70
2022-10-09T08:50:14.819Z,13.70
2022-10-09T08:52:51.592Z,13.80
2022-10-09T08:55:23.692Z,13.88
2022-10-09T08:57:59.021Z,14.00
2022-10-09T09:00:31.833Z,14.18
2022-10-09T09:03:24.730Z,14.28
2022-10-09T09:06:02.477Z,14.20
2022-10-09T09:08:41.607Z,14.20
2022-10-09T09:11:22.060Z,14.30
2022-10-09T09:14:02.599Z,14.30
2022-10-09T09:16:42.677Z,14.32
2022-10-09T09:19:24.903Z,14.38
2022-10-09T09:21:54.323Z,14.40
2022-10-09T09:24:33.725Z,14.50
2022-10-09T09:27:10.136Z,14.60
2022-10-09T09:29:43.163Z,14.74
2022-10-09T09:32:18.010Z,14.90
2022-10-09T09:34:47.076Z,15.00
2022-10-09T09:37:15.800Z,15.10
2022-10-09T09:40:34.475Z,15.10
2022-10-09T09:42:33.829Z,15.20
2022-10-09T09:45:04.647Z,15.30
2022-10-09T09:47:39.275Z,15.30
2022-10-09T09:50:28.566Z,15.46
2022-10-09T09:53:04.382Z,15.50
2022-10-09T09:55:35.514Z,15.50
2022-10-09T09:58:06.833Z,15.50
2022-10-09T10:00:35.682Z,15.60
2022-10-09T10:03:13.838Z,15.62
2022-10-09T10:05:43.678Z,15.70
2022-10-09T10:08:30.294Z,15.80
2022-10-09T10:11:02.074Z,15.84
2022-10-09T10:13:36.759Z,15.92
2022-10-09T10:16:07.608Z,16.00
2022-10-09T10:18:41.319Z,16.10
2022-10-09T10:21:14.198Z,16.10
2022-10-09T10:23:44.530Z,16.20
2022-10-09T10:26:42.186Z,16.30
2022-10-09T10:30:18.047Z,16.40
2022-10-09T10:32:57.924Z,16.50
2022-10-09T10:35:43.834Z,16.60
2022-10-09T10:38:17.928Z,16.76
2022-10-09T10:40:53.792Z,16.84
2022-10-09T10:43:33.218Z,16.90
2022-10-09T10:46:10.402Z,17.00
2022-10-09T10:48:46.746Z,17.10
2022-10-09T10:51:38.531Z,17.20
2022-10-09T10:54:20.976Z,17.40
2022-10-09T10:57:06.450Z,17.60
2022-10-09T10:59:42.836Z,17.70
2022-10-09T11:02:41.042Z,17.80
2022-10-09T11:05:22.479Z,17.82
2022-10-09T11:08:03.284Z,17.90
2022-10-09T11:10:37.154Z,18.10
2022-10-09T11:13:15.105Z,18.30
2022-10-09T11:15:52.712Z,18.40
2022-10-09T11:18:48.433Z,18.40
2022-10-09T11:21:36.517Z,18.50
2022-10-09T11:24:23.541Z,18.70
2022-10-09T11:27:03.601Z,18.70
2022-10-09T11:29:37.551Z,18.70
2022-10-09T11:32:13.113Z,18.80
2022-10-09T11:34:46.582Z,18.80
2022-10-09T11:37:22.010Z,18.68
2022-10-09T11:39:50.779Z,18.80
2022-10-09T11:42:23.860Z,19.10
2022-10-09T11:45:06.725Z,19.36
2022-10-09T11:47:42.449Z,20.20
2022-10-09T11:50:33.602Z,21.72
2022-10-09T11:53:08.524Z,25.42
2022-10-09T11:55:37.516Z,26.18
2022-10-09T11:58:21.338Z,25.68
2022-10-09T12:00:53.441Z,24.50
2022-10-09T12:03:33.041Z,23.76
2022-10-09T12:06:09.121Z,23.08
2022-10-09T12:08:39.816Z,22.46
2022-10-09T12:11:14.130Z,22.26
2022-10-09T12:13:49.977Z,26.28
2022-10-09T12:16:40.129Z,29.48
2022-10-09T12:19:19.445Z,32.14
2022-10-09T12:21:54.013Z,34.24
2022-10-09T12:24:26.023Z,35.84
2022-10-09T12:26:56.111Z,37.06
2022-10-09T12:29:41.810Z,36.80
2022-10-09T12:32:26.919Z,33.94
2022-10-09T12:35:26.959Z,34.94
2022-10-09T12:37:58.394Z,37.14
2022-10-09T12:43:54.747Z,34.26
2022-10-09T12:46:40.494Z,32.36
2022-10-09T12:49:19.012Z,34.04
2022-10-09T12:51:56.061Z,36.10
2022-10-09T12:54:25.431Z,37.82
2022-10-09T12:56:56.672Z,39.16
2022-10-09T12:59:27.257Z,40.20
2022-10-09T13:01:58.475Z,41.08
2022-10-09T13:04:30.742Z,41.86
2022-10-09T13:07:02.234Z,42.38
2022-10-09T13:09:37.724Z,42.76
2022-10-09T13:12:09.629Z,41.80
2022-10-09T13:14:44.159Z,41.48
2022-10-09T13:17:28.719Z,40.96
2022-10-09T13:19:59.964Z,40.94
2022-10-09T13:22:31.113Z,41.84
2022-10-09T13:25:06.150Z,42.56
2022-10-09T13:27:39.231Z,43.18
2022-10-09T13:30:11.777Z,43.44
2022-10-09T13:32:42.253Z,43.72
2022-10-09T13:35:11.130Z,44.08
2022-10-09T13:37:39.720Z,44.10
2022-10-09T13:40:18.158Z,43.88
2022-10-09T13:42:52.451Z,43.60
2022-10-09T13:45:21.276Z,43.54
2022-10-09T13:47:50.153Z,43.50
2022-10-09T13:50:19.158Z,43.60
2022-10-09T13:52:47.706Z,43.80
2022-10-09T13:55:16.685Z,43.90
2022-10-09T13:57:45.864Z,44.00
2022-10-09T14:00:15.330Z,44.00
2022-10-09T14:02:44.329Z,43.90
2022-10-09T14:05:13.997Z,43.90
2022-10-09T14:07:42.627Z,43.70
2022-10-09T14:10:11.395Z,43.66
2022-10-09T14:12:39.961Z,43.60
2022-10-09T14:15:09.470Z,43.44
2022-10-09T14:17:37.964Z,43.20
2022-10-09T14:20:07.877Z,41.70
2022-10-09T14:22:36.377Z,41.20
2022-10-09T14:25:06.144Z,41.10
2022-10-09T14:30:11.322Z,41.00
2022-10-09T14:32:39.683Z,40.90
2022-10-09T14:35:09.397Z,40.68
2022-10-09T14:37:41.515Z,40.24
2022-10-09T14:40:12.098Z,39.80
2022-10-09T14:42:40.967Z,39.36
2022-10-09T14:45:11.582Z,38.82
2022-10-09T14:47:40.018Z,38.18
2022-10-09T14:50:09.994Z,37.30
2022-10-09T14:52:38.344Z,36.46
2022-10-09T14:55:08.052Z,35.74
2022-10-09T14:57:36.487Z,34.84
2022-10-09T15:00:07.456Z,34.00
2022-10-09T15:02:35.914Z,33.10
2022-10-09T15:05:05.193Z,31.88
2022-10-09T15:07:33.777Z,30.52
2022-10-09T15:10:02.127Z,29.18
2022-10-09T15:12:30.466Z,27.94
2022-10-09T15:14:59.177Z,26.76
2022-10-09T15:17:27.395Z,25.70
2022-10-09T15:19:55.677Z,24.74
2022-10-09T15:22:23.964Z,23.84
2022-10-09T15:24:52.875Z,23.04
2022-10-09T15:27:21.216Z,22.32
2022-10-09T15:29:49.646Z,21.66
2022-10-09T15:32:17.999Z,21.06
2022-10-09T15:34:46.472Z,20.50
2022-10-09T15:37:14.838Z,20.00
2022-10-09T15:39:43.132Z,19.56
2022-10-09T15:42:11.529Z,19.20
2022-10-09T15:44:41.964Z,18.84
2022-10-09T15:47:13.613Z,18.56
2022-10-09T15:49:45.045Z,18.40
2022-10-09T15:52:13.438Z,18.30
2022-10-09T15:54:42.206Z,18.10
2022-10-09T15:57:10.563Z,17.90
2022-10-09T15:59:40.825Z,17.62
2022-10-09T16:02:10.738Z,17.40
2022-10-09T16:04:39.300Z,17.10
2022-10-09T16:07:07.721Z,16.90
2022-10-09T16:09:37.423Z,16.64
2022-10-09T16:12:05.891Z,16.42
2022-10-09T16:14:34.177Z,16.20
2022-10-09T16:17:02.465Z,15.90
2022-10-09T16:19:30.934Z,15.68
2022-10-09T16:21:59.314Z,15.40
2022-10-09T16:24:27.753Z,15.20
2022-10-09T16:26:56.549Z,15.00
2022-10-09T16:29:25.877Z,14.80
2022-10-09T16:31:55.865Z,14.60
2022-10-09T16:34:24.166Z,14.40
2022-10-09T16:36:52.562Z,14.24
2022-10-09T16:39:22.999Z,14.10
2022-10-09T16:41:51.280Z,13.90
2022-10-09T16:44:19.671Z,13.74
2022-10-09T16:46:48.016Z,13.60
2022-10-09T16:49:21.338Z,13.40
2022-10-09T16:51:52.519Z,13.28
2022-10-09T16:54:20.872Z,13.10
2022-10-09T16:56:49.197Z,13.00
2022-10-09T16:59:17.570Z,12.80
2022-10-09T17:01:47.092Z,12.64
2022-10-09T17:04:16.905Z,12.50
2022-10-09T17:06:45.886Z,12.40
2022-10-09T17:09:14.963Z,12.26
2022-10-09T17:11:43.481Z,12.10
2022-10-09T17:14:13.048Z,12.00
2022-10-09T17:16:42.418Z,11.96
2022-10-09T17:19:11.486Z,11.90
2022-10-09T17:21:40.872Z,11.80
2022-10-09T17:24:12.463Z,11.70
2022-10-09T17:26:40.779Z,11.60
2022-10-09T17:31:52.840Z,11.42
2022-10-09T17:34:21.229Z,11.40
2022-10-09T17:36:49.681Z,11.40
2022-10-09T17:39:18.452Z,11.30
2022-10-09T17:41:50.726Z,11.20
2022-10-09T17:44:20.786Z,11.10
2022-10-09T17:46:49.234Z,11.10
2022-10-09T17:49:17.628Z,11.00
2022-10-09T17:51:46.654Z,11.00
2022-10-09T17:54:16.630Z,10.90
2022-10-09T17:56:45.522Z,10.90
2022-10-09T17:59:15.085Z,10.90
2022-10-09T18:01:43.659Z,10.90
2022-10-09T18:04:15.570Z,10.80
2022-10-09T18:06:44.261Z,10.80
2022-10-09T18:09:13.040Z,10.80
2022-10-09T18:11:42.070Z,10.76
2022-10-09T18:14:11.130Z,10.70
2022-10-09T18:16:39.933Z,10.70
2022-10-09T18:19:11.571Z,10.64
2022-10-09T18:21:41.307Z,10.60
2022-10-09T18:24:10.595Z,10.50
2022-10-09T18:26:39.116Z,10.42
2022-10-09T18:29:07.626Z,10.40
2022-10-09T18:31:37.145Z,10.30
2022-10-09T18:34:05.657Z,10.20
2022-10-09T18:36:34.375Z,10.18
2022-10-09T18:39:05.175Z,10.10
2022-10-09T18:41:33.991Z,10.00
2022-10-09T18:44:02.820Z,9.90
2022-10-09T18:46:36.079Z,9.80
2022-10-09T18:49:09.312Z,9.80
2022-10-09T18:51:39.225Z,9.70
2022-10-09T18:54:08.603Z,9.70
2022-10-09T18:56:37.665Z,9.60
2022-10-09T18:59:10.215Z,9.58
2022-10-09T19:01:38.668Z,9.50
2022-10-09T19:04:06.952Z,9.50
2022-10-09T19:06:38.212Z,9.50
2022-10-09T19:09:06.723Z,9.48
2022-10-09T19:11:35.462Z,9.48
2022-10-09T19:14:04.622Z,9.40
2022-10-09T19:16:34.360Z,9.40
2022-10-09T19:19:03.046Z,9.40
2022-10-09T19:21:31.677Z,9.40
2022-10-09T19:24:03.851Z,9.40
2022-10-09T19:26:34.600Z,9.40
2022-10-09T19:29:03.918Z,9.40
2022-10-09T19:31:32.424Z,9.40
2022-10-09T19:34:01.402Z,9.40
2022-10-09T19:36:32.490Z,9.32
2022-10-09T19:39:01.505Z,9.30
2022-10-09T19:41:30.333Z,9.30
2022-10-09T19:43:59.184Z,9.30
2022-10-09T19:46:28.047Z,9.20
2022-10-09T19:48:56.742Z,9.20
2022-10-09T19:51:26.860Z,9.20
2022-10-09T19:53:55.807Z,9.20
2022-10-09T19:56:26.749Z,9.20
2022-10-09T19:58:56.466Z,9.20
2022-10-09T20:01:26.526Z,9.16
2022-10-09T20:03:55.733Z,9.20
2022-10-09T20:06:24.734Z,9.20
2022-10-09T20:09:04.598Z,9.20
2022-10-09T20:11:34.330Z,9.20
2022-10-09T20:14:04.371Z,9.20
2022-10-09T20:16:33.283Z,9.20
2022-10-09T20:19:02.441Z,9.30
2022-10-09T20:21:32.858Z,9.30
2022-10-09T20:24:01.606Z,9.30
2022-10-09T20:26:32.570Z,9.30
2022-10-09T20:29:00.963Z,9.30
2022-10-09T20:31:30.462Z,9.28
2022-10-09T20:33:58.857Z,9.20
2022-10-09T20:36:29.531Z,9.20
2022-10-09T20:38:58.787Z,9.20
2022-10-09T20:41:30.413Z,9.12
2022-10-09T20:44:00.556Z,9.10
2022-10-09T20:46:35.528Z,9.10
2022-10-09T20:49:06.615Z,9.10
2022-10-09T20:51:35.966Z,9.10
2022-10-09T20:54:06.325Z,9.10
2022-10-09T20:56:36.019Z,9.00
2022-10-09T20:59:04.579Z,9.00
2022-10-09T21:01:33.194Z,8.90
2022-10-09T21:04:02.403Z,8.90
2022-10-09T21:06:31.795Z,8.80
2022-10-09T21:09:00.864Z,8.80
2022-10-09T21:11:32.018Z,8.80
2022-10-09T21:14:00.495Z,8.80
2022-10-09T21:16:28.958Z,8.78
2022-10-09T21:18:59.858Z,8.80
2022-10-09T21:21:30.450Z,8.80
2022-10-09T21:24:00.109Z,8.74
2022-10-09T21:26:30.462Z,8.70
2022-10-09T21:29:00.149Z,8.70
2022-10-09T21:31:31.047Z,8.70
2022-10-09T21:34:01.050Z,8.70
2022-10-09T21:36:50.785Z,8.70
2022-10-09T21:39:27.447Z,8.70
2022-10-09T21:41:56.116Z,8.70
2022-10-09T21:44:24.478Z,8.70
2022-10-09T21:46:52.941Z,8.66
2022-10-09T21:49:23.629Z,8.60
2022-10-09T21:51:52.638Z,8.56
2022-10-09T21:54:21.103Z,8.50
2022-10-09T21:56:49.463Z,8.48
2022-10-09T21:59:17.863Z,8.40
2022-10-09T22:01:46.195Z,8.40
2022-10-09T22:04:14.575Z,8.40
2022-10-09T22:06:42.934Z,8.38
2022-10-09T22:09:11.420Z,8.38
2022-10-09T22:11:39.814Z,8.32
2022-10-09T22:14:08.546Z,8.30
2022-10-09T22:16:36.852Z,8.30
2022-10-09T22:19:05.586Z,8.30
2022-10-09T22:21:33.967Z,8.28
2022-10-09T22:24:02.347Z,8.20
2022-10-09T22:26:31.200Z,8.20
2022-10-09T22:28:59.597Z,8.14
2022-10-09T22:31:28.409Z,8.10
2022-10-09T22:33:58.416Z,8.08
2022-10-09T22:36:29.083Z,8.00
2022-10-09T22:39:00.247Z,8.00
2022-10-09T22:41:30.241Z,7.90
2022-10-09T22:44:01.882Z,7.90
2022-10-09T23:39:39.957Z,8.38
2022-10-09T23:42:11.686Z,8.40
2022-10-09T23:44:43.583Z,8.30
2022-10-09T23:47:15.337Z,8.10
2022-10-09T23:49:47.095Z,8.00
2022-10-09T23:52:18.870Z,7.90
2022-10-09T23:54:50.615Z,7.80
2022-10-09T23:57:22.499Z,7.74
2022-10-09T23:59:54.292Z,7.70
